Time;durP1;ratioP1;P1;durP2;ratioP2;P2;SDS_P1;SDS_P2;PMS_P1;PMS_P2;Temp;Humidity;BMP_temperature;BMP_pressure;BME280_temperature;BME280_humidity;BME280_pressure;Samples;Min_cycle;Max_cycle;Signal;HPM_P1;HPM_P2
2023/12/23 00:01:34;;;;;;;19.20;2.53;;;5.50;99.90;;;;;;5047099;28;20052;-71
2023/12/23 00:04:01;;;;;;;26.70;2.47;;;5.60;99.90;;;;;;5047436;28;20409;-71
2023/12/23 00:06:26;;;;;;;30.65;2.38;;;5.50;99.90;;;;;;5045875;28;20040;-72
2023/12/23 00:08:52;;;;;;;25.10;2.30;;;5.50;99.90;;;;;;5047665;28;20088;-71
2023/12/23 00:11:18;;;;;;;20.30;1.95;;;5.50;99.90;;;;;;5046701;28;20494;-71
2023/12/23 00:13:44;;;;;;;23.02;1.90;;;5.60;99.90;;;;;;5029548;28;20040;-71
2023/12/23 00:16:09;;;;;;;19.58;2.10;;;5.60;99.90;;;;;;5050384;28;20048;-71
2023/12/23 00:18:35;;;;;;;24.08;2.50;;;5.60;99.90;;;;;;5030482;28;20131;-71
2023/12/23 00:21:01;;;;;;;19.65;1.92;;;5.70;99.90;;;;;;5030989;28;20048;-71
2023/12/23 00:23:26;;;;;;;18.50;2.05;;;5.70;99.90;;;;;;5046532;28;20299;-71
2023/12/23 00:25:52;;;;;;;22.17;2.33;;;5.70;99.90;;;;;;5047453;28;20036;-71
2023/12/23 00:28:18;;;;;;;21.20;2.00;;;5.70;99.90;;;;;;5019686;28;20038;-71
2023/12/23 00:30:44;;;;;;;21.70;2.00;;;5.70;99.90;;;;;;5050503;28;20533;-71
2023/12/23 00:33:09;;;;;;;19.52;2.10;;;5.70;99.90;;;;;;5050667;28;20461;-70
2023/12/23 00:35:35;;;;;;;24.70;2.20;;;5.70;99.90;;;;;;5050010;28;20075;-71
2023/12/23 00:38:01;;;;;;;16.02;1.73;;;5.80;99.90;;;;;;5033410;28;20516;-71
2023/12/23 00:40:26;;;;;;;26.00;2.10;;;5.70;99.90;;;;;;5050649;28;20610;-70
2023/12/23 00:42:53;;;;;;;21.58;2.20;;;5.70;99.90;;;;;;5049888;28;20037;-70
2023/12/23 00:45:18;;;;;;;19.65;2.00;;;5.80;99.90;;;;;;5050273;28;20043;-70
2023/12/23 00:47:44;;;;;;;13.50;1.40;;;5.70;99.90;;;;;;5021712;28;20036;-71
2023/12/23 00:50:10;;;;;;;17.20;1.85;;;5.70;99.90;;;;;;5034887;28;20056;-70
2023/12/23 00:52:35;;;;;;;15.65;1.52;;;5.70;99.90;;;;;;5051428;28;20241;-70
2023/12/23 00:55:02;;;;;;;21.15;1.55;;;5.70;99.90;;;;;;5051423;28;20198;-70
2023/12/23 00:57:28;;;;;;;15.38;1.63;;;5.70;99.90;;;;;;5034216;28;20047;-69
2023/12/23 00:59:55;;;;;;;19.98;1.63;;;5.70;99.90;;;;;;5049118;28;20044;-70
2023/12/23 01:02:20;;;;;;;17.48;1.42;;;5.80;99.90;;;;;;5050135;28;20049;-69
2023/12/23 01:04:46;;;;;;;18.27;1.83;;;5.80;99.90;;;;;;5049718;28;20037;-70
2023/12/23 01:07:12;;;;;;;20.38;2.00;;;5.90;99.90;;;;;;5050576;28;20251;-69
2023/12/23 01:09:38;;;;;;;29.58;2.72;;;6.00;99.90;;;;;;5049893;28;20522;-69
2023/12/23 01:12:04;;;;;;;23.73;2.15;;;6.10;99.90;;;;;;5048994;28;20490;-68
2023/12/23 01:14:30;;;;;;;22.83;2.70;;;6.10;99.90;;;;;;5053258;28;20687;-69
2023/12/23 01:16:56;;;;;;;22.70;2.60;;;6.00;99.90;;;;;;5031639;28;20041;-70
2023/12/23 01:19:21;;;;;;;23.95;2.75;;;6.00;99.90;;;;;;5016969;28;20052;-71
2023/12/23 01:21:47;;;;;;;27.23;3.35;;;5.70;99.90;;;;;;5034048;28;20044;-72
2023/12/23 01:24:13;;;;;;;20.40;2.55;;;5.70;99.90;;;;;;5019205;28;20209;-71
2023/12/23 01:26:39;;;;;;;22.50;3.42;;;5.60;99.90;;;;;;5018981;28;20036;-71
2023/12/23 01:29:04;;;;;;;25.60;2.72;;;5.50;99.90;;;;;;5032593;28;20245;-71
2023/12/23 01:31:30;;;;;;;22.67;2.53;;;5.40;99.90;;;;;;5032777;28;20090;-71
2023/12/23 01:33:56;;;;;;;24.35;2.83;;;5.40;99.90;;;;;;5032857;28;20178;-71
2023/12/23 01:36:21;;;;;;;19.85;1.63;;;5.30;99.90;;;;;;5048895;28;21044;-71
2023/12/23 01:38:47;;;;;;;20.90;2.33;;;5.30;99.90;;;;;;5050465;28;20040;-71
2023/12/23 01:41:13;;;;;;;28.33;2.38;;;5.20;99.90;;;;;;5033867;28;20036;-71
2023/12/23 01:43:38;;;;;;;22.90;2.20;;;5.20;99.90;;;;;;5033973;28;20438;-71
2023/12/23 01:46:05;;;;;;;27.88;2.38;;;5.20;99.90;;;;;;5032549;28;20263;-71
2023/12/23 01:48:35;;;;;;;24.33;2.47;;;5.20;99.90;;;;;;5033741;28;20522;-70
2023/12/23 01:51:02;;;;;;;22.67;2.38;;;5.10;99.90;;;;;;5050165;28;20589;-72
2023/12/23 01:53:28;;;;;;;20.42;1.80;;;5.20;99.90;;;;;;5034426;28;20347;-71
2023/12/23 01:55:54;;;;;;;25.58;1.83;;;5.10;99.90;;;;;;5032681;28;20040;-71
2023/12/23 01:58:21;;;;;;;27.13;2.47;;;5.30;99.90;;;;;;5050084;28;20044;-71
2023/12/23 02:00:47;;;;;;;32.53;4.13;;;5.20;99.90;;;;;;5031786;28;20391;-71
2023/12/23 02:03:13;;;;;;;17.73;1.80;;;5.30;99.90;;;;;;5032449;28;20338;-71
2023/12/23 02:05:39;;;;;;;21.30;2.47;;;5.30;99.90;;;;;;5050168;28;20405;-71
2023/12/23 02:08:05;;;;;;;31.58;3.33;;;5.30;99.90;;;;;;5048209;28;20216;-71
2023/12/23 02:10:31;;;;;;;28.08;2.20;;;5.30;99.90;;;;;;5032149;28;20491;-71
2023/12/23 02:13:18;;;;;;;22.40;2.35;;;5.40;99.90;;;;;;5048253;28;20040;-71
2023/12/23 02:15:47;;;;;;;26.23;2.33;;;5.40;99.90;;;;;;5031900;28;20252;-71
2023/12/23 02:18:12;;;;;;;26.00;2.75;;;5.40;99.90;;;;;;5048154;28;20048;-71
2023/12/23 02:20:38;;;;;;;26.50;2.38;;;5.40;99.90;;;;;;5049259;28;20045;-71
2023/12/23 02:23:04;;;;;;;31.98;2.83;;;5.40;99.90;;;;;;5020371;28;20043;-71
2023/12/23 02:25:30;;;;;;;19.27;1.50;;;5.40;99.90;;;;;;5015570;28;20071;-71
2023/12/23 02:28:02;;;;;;;24.73;2.90;;;5.40;99.90;;;;;;5047643;28;20540;-71
2023/12/23 02:30:30;;;;;;;26.63;2.88;;;5.40;99.90;;;;;;5050605;28;20256;-71
2023/12/23 02:32:56;;;;;;;17.75;1.90;;;5.50;99.90;;;;;;5049372;28;20573;-71
2023/12/23 02:35:27;;;;;;;19.55;1.65;;;5.50;99.90;;;;;;5050085;28;20365;-71
2023/12/23 02:37:54;;;;;;;20.83;2.30;;;5.70;99.90;;;;;;5049400;28;20067;-71
2023/12/23 02:40:21;;;;;;;16.25;1.90;;;5.90;99.90;;;;;;5048462;28;20040;-70
2023/12/23 02:42:46;;;;;;;17.08;1.27;;;6.00;99.90;;;;;;5031380;28;20249;-71
2023/12/23 02:45:12;;;;;;;14.02;1.52;;;6.10;99.90;;;;;;5058519;28;20051;-71
2023/12/23 02:47:38;;;;;;;17.90;1.38;;;6.10;99.90;;;;;;5047300;28;20041;-71
2023/12/23 02:50:04;;;;;;;18.85;1.65;;;6.20;99.90;;;;;;5031690;28;20460;-71
2023/12/23 02:52:29;;;;;;;18.92;1.77;;;6.30;99.90;;;;;;5047879;28;20147;-71
2023/12/23 02:54:55;;;;;;;15.00;1.23;;;6.30;99.90;;;;;;5032320;28;20044;-71
2023/12/23 02:57:21;;;;;;;16.02;1.65;;;6.30;99.90;;;;;;5047396;28;20691;-71
2023/12/23 02:59:47;;;;;;;16.60;1.10;;;6.20;99.90;;;;;;5047816;28;20049;-71
2023/12/23 03:02:13;;;;;;;21.02;1.80;;;6.30;99.90;;;;;;5047432;28;20074;-71
2023/12/23 03:04:39;;;;;;;15.75;1.10;;;6.20;99.90;;;;;;5046952;28;20041;-71
2023/12/23 03:07:05;;;;;;;12.07;1.00;;;6.20;99.90;;;;;;5047731;28;20138;-71
2023/12/23 03:09:31;;;;;;;18.92;1.85;;;6.20;99.90;;;;;;5019268;28;20060;-71
2023/12/23 03:11:57;;;;;;;13.95;1.30;;;6.20;99.90;;;;;;5047978;28;20086;-71
2023/12/23 03:14:22;;;;;;;19.85;1.42;;;6.20;99.90;;;;;;5047812;28;20071;-71
2023/12/23 03:16:48;;;;;;;14.23;1.10;;;6.10;99.90;;;;;;5046793;28;20398;-71
2023/12/23 03:19:14;;;;;;;11.48;1.05;;;6.20;99.90;;;;;;5048171;28;20141;-70
2023/12/23 03:21:43;;;;;;;18.77;1.25;;;6.10;99.90;;;;;;5030686;28;20205;-71
2023/12/23 03:24:09;;;;;;;12.90;1.33;;;6.10;99.90;;;;;;5047377;28;20296;-70
2023/12/23 03:26:35;;;;;;;10.10;0.93;;;6.00;99.90;;;;;;5064528;28;20071;-71
2023/12/23 03:29:00;;;;;;;11.65;0.93;;;6.00;99.90;;;;;;5047493;28;20040;-70
2023/12/23 03:31:26;;;;;;;13.23;0.98;;;6.00;99.90;;;;;;5047544;28;20063;-70
2023/12/23 03:33:52;;;;;;;14.20;1.23;;;5.90;99.90;;;;;;5029295;28;20043;-70
2023/12/23 03:36:18;;;;;;;11.20;0.70;;;6.00;99.90;;;;;;5046872;28;20046;-70
2023/12/23 03:38:43;;;;;;;12.32;0.82;;;5.80;99.90;;;;;;5046676;28;20048;-70
2023/12/23 03:41:12;;;;;;;11.30;1.17;;;5.70;99.90;;;;;;5047053;28;20036;-70
2023/12/23 03:43:38;;;;;;;14.63;1.20;;;5.80;99.90;;;;;;5048357;28;20032;-71
2023/12/23 03:46:04;;;;;;;14.60;0.85;;;5.70;99.90;;;;;;5047572;28;20037;-70
2023/12/23 03:48:30;;;;;;;16.60;1.08;;;5.60;99.90;;;;;;5047449;28;20054;-70
2023/12/23 03:50:55;;;;;;;15.05;0.68;;;5.60;99.90;;;;;;5048687;28;20098;-71
2023/12/23 03:53:21;;;;;;;12.10;0.90;;;5.60;99.90;;;;;;5031251;28;20475;-70
2023/12/23 03:55:47;;;;;;;19.58;1.30;;;5.50;99.90;;;;;;5047487;28;20047;-71
2023/12/23 03:58:12;;;;;;;15.65;1.58;;;5.50;99.90;;;;;;5031506;28;20518;-70
2023/12/23 04:00:38;;;;;;;12.05;0.98;;;5.50;99.90;;;;;;5032946;28;20055;-70
2023/12/23 04:03:04;;;;;;;10.95;0.90;;;5.50;99.90;;;;;;5037225;28;20458;-70
2023/12/23 04:05:30;;;;;;;14.77;1.25;;;5.50;99.90;;;;;;5054977;28;20048;-70
2023/12/23 04:07:55;;;;;;;17.70;1.10;;;5.60;99.90;;;;;;5054140;28;20036;-71
2023/12/23 04:10:21;;;;;;;14.50;1.00;;;5.50;99.90;;;;;;5054145;28;20488;-70
2023/12/23 04:12:47;;;;;;;12.50;0.70;;;5.50;99.90;;;;;;5054952;28;20052;-70
2023/12/23 04:15:13;;;;;;;15.52;0.65;;;5.50;99.90;;;;;;5037926;28;20105;-70
2023/12/23 04:17:42;;;;;;;11.20;0.90;;;5.30;99.90;;;;;;5054505;28;20889;-70
2023/12/23 04:20:08;;;;;;;12.98;0.60;;;5.30;99.90;;;;;;5037712;28;20040;-70
2023/12/23 04:22:35;;;;;;;11.70;0.90;;;5.40;99.90;;;;;;5037848;28;20605;-70
2023/12/23 04:25:01;;;;;;;11.35;0.90;;;5.40;99.90;;;;;;5052753;28;20609;-71
2023/12/23 04:27:27;;;;;;;17.13;1.10;;;5.40;99.90;;;;;;5038253;28;20316;-70
2023/12/23 04:29:53;;;;;;;15.38;1.00;;;5.40;99.90;;;;;;5052964;28;20044;-70
2023/12/23 04:32:18;;;;;;;11.20;0.95;;;5.40;99.90;;;;;;5054472;28;20127;-70
2023/12/23 04:34:44;;;;;;;15.13;1.25;;;5.30;99.90;;;;;;5053310;28;20320;-70
2023/12/23 04:37:10;;;;;;;16.75;1.05;;;5.40;99.90;;;;;;5021241;28;20105;-70
2023/12/23 04:39:35;;;;;;;18.75;1.77;;;5.50;99.90;;;;;;5053075;28;20091;-70
2023/12/23 04:42:01;;;;;;;21.75;1.13;;;5.40;99.90;;;;;;5053059;28;20378;-69
2023/12/23 04:44:27;;;;;;;17.92;1.40;;;5.30;99.90;;;;;;5053711;28;20048;-70
2023/12/23 04:46:54;;;;;;;11.65;0.65;;;5.30;99.90;;;;;;5052468;28;20969;-71
2023/12/23 04:49:19;;;;;;;19.52;1.38;;;5.50;99.90;;;;;;5031070;28;20110;-70
2023/12/23 04:51:45;;;;;;;16.77;0.82;;;5.50;99.90;;;;;;5052706;28;20583;-70
2023/12/23 04:54:12;;;;;;;17.48;1.00;;;5.50;99.90;;;;;;5052311;28;20048;-70
2023/12/23 04:56:37;;;;;;;12.95;0.73;;;5.40;99.90;;;;;;5053727;28;20036;-70
2023/12/23 04:59:03;;;;;;;19.35;1.50;;;5.50;99.90;;;;;;5052910;28;20505;-70
2023/12/23 05:01:29;;;;;;;12.40;0.95;;;5.50;99.90;;;;;;5036128;28;20048;-70
2023/12/23 05:03:55;;;;;;;14.50;0.82;;;5.50;99.90;;;;;;5053672;28;20044;-70
2023/12/23 05:06:21;;;;;;;14.13;1.27;;;5.30;99.90;;;;;;5051491;28;20083;-69
2023/12/23 05:08:47;;;;;;;18.83;0.90;;;5.40;99.90;;;;;;5050981;28;20028;-70
2023/12/23 05:11:13;;;;;;;17.20;1.08;;;5.40;99.90;;;;;;5051261;28;20724;-70
2023/12/23 05:13:39;;;;;;;13.00;1.00;;;5.30;99.90;;;;;;5049999;28;20289;-70
2023/12/23 05:16:05;;;;;;;17.48;0.73;;;5.40;99.90;;;;;;5033479;28;20399;-70
2023/12/23 05:18:30;;;;;;;16.35;0.70;;;5.40;99.90;;;;;;5031733;28;20051;-70
2023/12/23 05:20:56;;;;;;;13.98;0.77;;;5.30;99.90;;;;;;5033162;28;20040;-71
2023/12/23 05:23:22;;;;;;;12.75;0.70;;;5.30;99.90;;;;;;5049093;28;20592;-70
2023/12/23 05:25:48;;;;;;;9.07;0.77;;;5.40;99.90;;;;;;5031935;28;20037;-71
2023/12/23 05:28:13;;;;;;;12.98;0.50;;;5.20;99.90;;;;;;5049033;28;20198;-70
2023/12/23 05:30:39;;;;;;;12.75;0.85;;;5.10;99.90;;;;;;5032958;28;20044;-70
2023/12/23 05:33:05;;;;;;;11.35;0.55;;;5.10;99.90;;;;;;5029346;28;20074;-70
2023/12/23 05:35:31;;;;;;;10.25;0.43;;;5.30;99.90;;;;;;5031781;28;20597;-70
2023/12/23 05:37:56;;;;;;;6.45;0.50;;;5.40;99.90;;;;;;5032308;28;20274;-70
2023/12/23 05:40:22;;;;;;;10.57;0.50;;;5.40;99.90;;;;;;5031966;28;20032;-70
2023/12/23 05:42:48;;;;;;;8.77;0.55;;;5.40;99.90;;;;;;5016712;28;20074;-70
2023/12/23 05:45:14;;;;;;;9.45;0.73;;;5.00;99.90;;;;;;5033497;28;20044;-70
2023/12/23 05:47:40;;;;;;;11.82;0.55;;;5.10;99.90;;;;;;5033255;28;20037;-70
2023/12/23 05:50:07;;;;;;;11.80;0.70;;;5.20;99.90;;;;;;5049185;28;20568;-70
2023/12/23 05:52:32;;;;;;;10.65;0.60;;;5.20;99.90;;;;;;5017336;28;20500;-71
2023/12/23 05:54:58;;;;;;;11.65;0.70;;;5.30;99.90;;;;;;5051502;28;20115;-70
2023/12/23 05:57:24;;;;;;;7.05;0.98;;;5.00;99.90;;;;;;5032194;28;20036;-70
2023/12/23 05:59:49;;;;;;;8.32;0.40;;;5.30;99.90;;;;;;5033511;28;20139;-70
2023/12/23 06:02:15;;;;;;;11.00;0.50;;;5.20;99.90;;;;;;5049423;28;20059;-70
2023/12/23 06:04:41;;;;;;;10.05;0.55;;;5.30;99.90;;;;;;5050544;28;20044;-70
2023/12/23 06:07:06;;;;;;;12.05;0.75;;;5.30;99.90;;;;;;5032401;28;20270;-70
2023/12/23 06:09:32;;;;;;;6.10;0.57;;;4.90;99.90;;;;;;5047500;28;20226;-70
2023/12/23 06:11:58;;;;;;;6.53;0.30;;;5.10;99.90;;;;;;5048804;28;20524;-70
2023/12/23 06:14:24;;;;;;;4.10;0.20;;;4.80;99.90;;;;;;5048120;28;20261;-71
2023/12/23 06:16:50;;;;;;;4.63;0.20;;;4.80;99.90;;;;;;5033130;28;20918;-71
2023/12/23 06:19:16;;;;;;;8.65;0.25;;;4.90;99.90;;;;;;5032402;28;20277;-70
2023/12/23 06:21:45;;;;;;;5.22;0.20;;;5.20;99.90;;;;;;5048456;28;20565;-71
2023/12/23 06:24:14;;;;;;;5.55;0.20;;;4.80;99.90;;;;;;5046682;28;20288;-70
2023/12/23 06:26:40;;;;;;;8.30;0.25;;;5.40;99.90;;;;;;5047534;28;20041;-71
2023/12/23 06:29:06;;;;;;;7.88;0.30;;;4.70;99.90;;;;;;5032520;28;20044;-70
2023/12/23 06:31:33;;;;;;;4.97;0.15;;;5.20;99.90;;;;;;5032228;28;20056;-71
2023/12/23 06:33:59;;;;;;;5.53;0.20;;;4.60;99.90;;;;;;5047667;28;20083;-70
2023/12/23 06:36:25;;;;;;;6.50;0.20;;;5.10;99.90;;;;;;5031875;28;20225;-70
2023/12/23 06:38:51;;;;;;;7.78;0.22;;;5.10;99.90;;;;;;5030338;28;20253;-71
2023/12/23 06:41:17;;;;;;;8.27;0.47;;;4.80;99.90;;;;;;5047639;28;20106;-71
2023/12/23 06:43:42;;;;;;;4.43;0.20;;;4.60;99.90;;;;;;5034064;28;20119;-71
2023/12/23 06:46:11;;;;;;;4.47;0.20;;;5.10;99.90;;;;;;5047509;28;20071;-71
2023/12/23 06:48:37;;;;;;;5.13;0.22;;;5.20;99.90;;;;;;5032493;28;20713;-71
2023/12/23 06:51:04;;;;;;;5.22;0.20;;;5.40;99.90;;;;;;5030311;28;20063;-71
2023/12/23 06:53:29;;;;;;;6.22;0.20;;;5.40;99.90;;;;;;5047882;28;20498;-71
2023/12/23 06:55:55;;;;;;;5.00;0.20;;;4.80;99.90;;;;;;5047491;28;20482;-71
2023/12/23 06:58:27;;;;;;;6.75;0.20;;;5.60;99.90;;;;;;5019039;28;20521;-71
2023/12/23 07:00:52;;;;;;;3.75;0.20;;;4.80;99.90;;;;;;5048994;28;20056;-71
2023/12/23 07:03:18;;;;;;;5.10;0.20;;;5.60;99.90;;;;;;5048891;28;20052;-71
2023/12/23 07:05:44;;;;;;;3.53;0.20;;;4.40;99.90;;;;;;5048381;28;20044;-71
2023/12/23 07:08:09;;;;;;;6.70;0.20;;;5.20;99.90;;;;;;5047705;28;20605;-70
2023/12/23 07:10:35;;;;;;;2.30;0.10;;;4.70;99.90;;;;;;5049412;28;20032;-70
2023/12/23 07:13:01;;;;;;;5.22;0.20;;;5.40;99.90;;;;;;5019239;28;20040;-70
2023/12/23 07:15:26;;;;;;;7.65;0.25;;;4.50;99.90;;;;;;5047982;28;20036;-70
2023/12/23 07:17:52;;;;;;;6.03;0.30;;;5.00;99.90;;;;;;5030933;28;20047;-71
2023/12/23 07:20:18;;;;;;;8.18;0.30;;;4.50;99.90;;;;;;5031635;28;20536;-70
2023/12/23 07:22:43;;;;;;;6.25;0.20;;;4.70;99.90;;;;;;5048581;28;20051;-70
2023/12/23 07:25:09;;;;;;;7.57;0.30;;;4.40;99.90;;;;;;5049389;28;20127;-71
2023/12/23 07:27:35;;;;;;;5.00;0.20;;;4.90;99.90;;;;;;5049366;28;20170;-71
2023/12/23 07:30:03;;;;;;;7.97;0.25;;;5.40;99.90;;;;;;5018445;28;20078;-71
2023/12/23 07:32:29;;;;;;;5.88;0.20;;;4.90;99.90;;;;;;5048551;28;20048;-70
2023/12/23 07:34:55;;;;;;;4.72;0.20;;;4.80;99.90;;;;;;5031539;28;20513;-71
2023/12/23 07:37:21;;;;;;;7.05;0.40;;;4.60;99.90;;;;;;5041860;28;20040;-70
2023/12/23 07:39:46;;;;;;;5.38;0.20;;;4.50;99.90;;;;;;5047608;28;20070;-71
2023/12/23 07:42:12;;;;;;;3.97;0.20;;;4.60;99.90;;;;;;5049068;28;20673;-70
2023/12/23 07:44:38;;;;;;;5.70;0.20;;;5.30;99.90;;;;;;5049768;28;20123;-71
2023/12/23 07:47:05;;;;;;;3.72;0.45;;;4.50;99.90;;;;;;5049713;28;20110;-71
2023/12/23 07:49:32;;;;;;;3.88;0.20;;;4.50;99.90;;;;;;5017184;28;20127;-71
2023/12/23 07:51:58;;;;;;;4.28;0.22;;;4.80;99.90;;;;;;5033531;28;20488;-71
2023/12/23 07:54:24;;;;;;;2.58;0.32;;;4.50;99.90;;;;;;5049990;28;20387;-71
2023/12/23 07:56:50;;;;;;;3.13;0.30;;;5.10;99.90;;;;;;5032939;28;20473;-71
2023/12/23 07:59:17;;;;;;;2.95;0.20;;;5.10;99.90;;;;;;5047786;28;20041;-71
2023/12/23 08:01:44;;;;;;;6.05;0.30;;;4.80;99.90;;;;;;5031512;28;20114;-71
2023/12/23 08:04:10;;;;;;;2.35;0.20;;;4.50;99.90;;;;;;5046344;28;20577;-71
2023/12/23 08:06:35;;;;;;;3.33;0.30;;;4.60;99.90;;;;;;5028408;28;20036;-71
2023/12/23 08:09:01;;;;;;;5.00;0.60;;;5.00;99.90;;;;;;5041455;28;20072;-72
2023/12/23 08:11:27;;;;;;;4.95;0.30;;;5.40;99.90;;;;;;5038059;28;20041;-72
2023/12/23 08:13:52;;;;;;;2.72;0.30;;;4.90;99.90;;;;;;5036744;28;20343;-71
2023/12/23 08:16:18;;;;;;;2.42;0.20;;;4.90;99.90;;;;;;5044762;28;20562;-71
2023/12/23 08:18:45;;;;;;;1.95;0.30;;;4.50;99.90;;;;;;5046256;28;20048;-72
2023/12/23 08:21:11;;;;;;;3.53;0.30;;;5.20;99.90;;;;;;5029063;28;20498;-72
2023/12/23 08:23:37;;;;;;;3.28;0.30;;;4.60;99.90;;;;;;5045535;28;20420;-72
2023/12/23 08:26:03;;;;;;;6.30;0.30;;;4.60;99.90;;;;;;5031432;28;20032;-72
2023/12/23 08:28:29;;;;;;;4.63;0.20;;;5.60;99.90;;;;;;5031253;28;20072;-72
2023/12/23 08:30:55;;;;;;;1.27;0.40;;;5.00;99.90;;;;;;5046549;28;20172;-72
2023/12/23 08:33:20;;;;;;;4.57;0.50;;;4.60;99.90;;;;;;5045020;28;20588;-71
2023/12/23 08:35:46;;;;;;;3.17;0.30;;;4.60;99.90;;;;;;5046477;28;20044;-72
2023/12/23 08:38:12;;;;;;;4.75;0.52;;;5.60;99.90;;;;;;5045801;28;20326;-71
2023/12/23 08:40:38;;;;;;;3.10;0.40;;;4.70;99.90;;;;;;5029958;28;20036;-73
2023/12/23 08:43:04;;;;;;;3.65;0.55;;;5.20;99.90;;;;;;5028929;28;20127;-72
2023/12/23 08:45:29;;;;;;;2.15;0.40;;;5.60;99.90;;;;;;5048500;28;20044;-72
2023/12/23 08:47:55;;;;;;;3.67;0.43;;;5.10;99.90;;;;;;5050926;28;20069;-72
2023/12/23 08:50:22;;;;;;;2.33;0.47;;;5.50;99.90;;;;;;5036963;28;20783;-72
2023/12/23 08:52:48;;;;;;;5.93;0.65;;;5.60;99.90;;;;;;5053309;28;20040;-72
2023/12/23 08:55:15;;;;;;;5.75;0.70;;;4.80;99.90;;;;;;5053468;28;20053;-72
2023/12/23 08:57:40;;;;;;;2.70;0.50;;;4.90;99.90;;;;;;5036567;28;20052;-71
2023/12/23 09:00:07;;;;;;;3.47;0.68;;;5.70;99.90;;;;;;5053306;28;20415;-71
2023/12/23 09:02:34;;;;;;;4.55;0.60;;;5.70;99.90;;;;;;5036614;28;20067;-72
2023/12/23 09:05:00;;;;;;;3.40;0.40;;;5.40;99.90;;;;;;5036771;28;20045;-72
2023/12/23 09:07:25;;;;;;;2.70;0.63;;;5.70;99.90;;;;;;5053048;28;20125;-72
2023/12/23 09:09:51;;;;;;;3.88;0.35;;;5.80;99.90;;;;;;5036256;28;20052;-72
2023/12/23 09:12:19;;;;;;;3.60;0.40;;;5.60;99.90;;;;;;5037120;28;20037;-72
2023/12/23 09:14:46;;;;;;;7.57;0.90;;;5.70;99.90;;;;;;5052438;28;20048;-72
2023/12/23 09:17:11;;;;;;;3.60;0.50;;;4.90;99.90;;;;;;5052683;28;20257;-72
2023/12/23 09:19:37;;;;;;;6.28;0.68;;;5.30;99.90;;;;;;5053196;28;20140;-72
2023/12/23 09:22:03;;;;;;;3.20;0.40;;;5.40;99.90;;;;;;5052747;28;20510;-72
2023/12/23 09:24:29;;;;;;;5.90;0.60;;;4.90;99.90;;;;;;5053320;28;20129;-73
2023/12/23 09:26:55;;;;;;;2.47;0.50;;;5.10;99.90;;;;;;5053205;28;20052;-72
2023/12/23 09:29:21;;;;;;;3.50;0.40;;;5.70;99.90;;;;;;5035959;28;20440;-72
2023/12/23 09:31:47;;;;;;;4.47;0.77;;;5.00;99.90;;;;;;5019948;28;20052;-72
2023/12/23 09:34:12;;;;;;;1.73;0.50;;;5.00;99.90;;;;;;5052909;28;20109;-72
2023/12/23 09:36:38;;;;;;;1.05;0.40;;;5.20;99.90;;;;;;5052741;28;20050;-72
2023/12/23 09:39:04;;;;;;;4.70;0.50;;;5.60;99.90;;;;;;5035865;28;20041;-72
2023/12/23 09:41:32;;;;;;;2.08;0.52;;;5.80;99.90;;;;;;5036368;28;20040;-72
2023/12/23 09:43:58;;;;;;;2.83;0.50;;;5.30;99.90;;;;;;5052180;28;20390;-72
2023/12/23 09:46:24;;;;;;;1.45;0.40;;;5.10;99.90;;;;;;5052162;28;20044;-72
2023/12/23 09:48:49;;;;;;;3.03;0.65;;;5.10;99.90;;;;;;5051895;28;20163;-72
2023/12/23 09:51:17;;;;;;;4.10;0.40;;;5.80;99.90;;;;;;5035374;28;20335;-72
2023/12/23 09:53:47;;;;;;;2.22;0.68;;;5.20;99.90;;;;;;5052789;28;20106;-72
2023/12/23 09:56:13;;;;;;;4.55;0.80;;;5.90;99.90;;;;;;5052180;28;20102;-72
2023/12/23 09:58:43;;;;;;;5.15;1.45;;;5.90;99.90;;;;;;5034233;28;20048;-72
2023/12/23 10:01:09;;;;;;;2.95;0.80;;;5.70;99.90;;;;;;5035292;28;20668;-72
2023/12/23 10:03:35;;;;;;;3.13;0.70;;;5.30;99.90;;;;;;5051974;28;20049;-72
2023/12/23 10:06:01;;;;;;;3.55;0.80;;;5.30;99.90;;;;;;5052223;28;20032;-72
2023/12/23 10:08:27;;;;;;;2.28;0.90;;;6.10;99.90;;;;;;5035363;28;20481;-73
2023/12/23 10:10:53;;;;;;;3.30;1.05;;;5.40;99.90;;;;;;5050821;28;20682;-72
2023/12/23 10:13:19;;;;;;;4.53;0.70;;;5.10;99.90;;;;;;5051516;28;20045;-73
2023/12/23 10:15:45;;;;;;;3.47;1.20;;;6.30;99.90;;;;;;5034258;28;20043;-72
2023/12/23 10:18:12;;;;;;;1.70;0.65;;;6.20;99.90;;;;;;5051348;28;20328;-72
2023/12/23 10:20:38;;;;;;;2.33;0.90;;;6.00;99.90;;;;;;5052017;28;20130;-72
2023/12/23 10:23:03;;;;;;;2.78;0.60;;;6.00;99.90;;;;;;5052275;28;20135;-72
2023/12/23 10:25:30;;;;;;;3.08;1.10;;;5.40;99.90;;;;;;5035191;28;20294;-72
2023/12/23 10:28:03;;;;;;;2.78;1.50;;;5.30;99.90;;;;;;5051289;28;20260;-72
2023/12/23 10:30:39;;;;;;;3.13;1.02;;;5.30;99.90;;;;;;5019625;28;20040;-72
2023/12/23 10:33:07;;;;;;;0.90;0.55;;;5.30;99.90;;;;;;5035098;28;20048;-73
2023/12/23 10:35:45;;;;;;;1.67;0.60;;;6.40;99.90;;;;;;5034994;28;20044;-72
2023/12/23 10:38:21;;;;;;;1.70;0.60;;;5.40;99.90;;;;;;5051131;28;20036;-71
2023/12/23 10:40:54;;;;;;;3.33;0.70;;;5.40;99.90;;;;;;5034642;28;20131;-71
2023/12/23 10:43:20;;;;;;;1.35;0.40;;;5.50;99.90;;;;;;5051240;28;20040;-71
2023/12/23 10:45:49;;;;;;;0.60;0.40;;;5.40;99.90;;;;;;5050698;28;20103;-71
2023/12/23 10:48:17;;;;;;;1.65;0.43;;;5.60;99.90;;;;;;5050652;28;20337;-71
2023/12/23 10:50:47;;;;;;;1.27;0.57;;;6.10;99.90;;;;;;5050995;28;20249;-71
2023/12/23 10:53:16;;;;;;;1.60;0.40;;;5.30;99.90;;;;;;5034403;28;20059;-71
2023/12/23 10:55:43;;;;;;;1.02;0.40;;;5.40;99.90;;;;;;5051223;28;20048;-72
2023/12/23 10:58:10;;;;;;;0.70;0.40;;;6.60;99.90;;;;;;5050872;28;20048;-71
2023/12/23 11:00:36;;;;;;;1.38;0.25;;;6.30;99.90;;;;;;5050769;28;20367;-72
2023/12/23 11:03:03;;;;;;;0.80;0.20;;;5.50;99.90;;;;;;5050130;28;20263;-71
2023/12/23 11:05:32;;;;;;;0.60;0.30;;;6.20;99.90;;;;;;5050701;28;20348;-72
2023/12/23 11:08:01;;;;;;;0.80;0.30;;;5.70;99.90;;;;;;5051500;28;20482;-71
2023/12/23 11:10:30;;;;;;;0.47;0.20;;;5.90;99.90;;;;;;5050389;28;20256;-72
2023/12/23 11:12:57;;;;;;;0.85;0.15;;;5.60;99.90;;;;;;5051275;28;20040;-71
2023/12/23 11:15:24;;;;;;;0.38;0.10;;;6.40;99.90;;;;;;5050051;28;20259;-72
2023/12/23 11:17:50;;;;;;;0.40;0.10;;;6.10;99.90;;;;;;5049922;28;20072;-72
2023/12/23 11:20:47;;;;;;;0.13;0.10;;;6.30;99.90;;;;;;5050437;28;20052;-72
2023/12/23 11:23:28;;;;;;;0.50;0.10;;;5.50;99.90;;;;;;5048278;28;20072;-72
2023/12/23 11:25:55;;;;;;;1.33;0.20;;;6.40;99.90;;;;;;5050520;28;20516;-72
2023/12/23 11:28:21;;;;;;;0.40;0.30;;;6.00;99.90;;;;;;5051103;28;20068;-72
2023/12/23 11:30:48;;;;;;;1.70;0.30;;;6.00;99.90;;;;;;5017706;28;20045;-72
2023/12/23 11:33:14;;;;;;;0.90;0.30;;;5.70;99.90;;;;;;5017450;28;20502;-72
2023/12/23 11:35:47;;;;;;;1.02;0.30;;;6.60;99.90;;;;;;5033802;28;20072;-72
2023/12/23 11:38:13;;;;;;;0.98;0.35;;;6.10;99.90;;;;;;5033265;28;20044;-71
2023/12/23 11:40:39;;;;;;;0.70;0.20;;;5.70;99.90;;;;;;5033176;28;20640;-72
2023/12/23 11:43:05;;;;;;;0.60;0.20;;;6.30;99.90;;;;;;5033400;28;20040;-72
2023/12/23 11:45:30;;;;;;;1.45;0.38;;;5.80;99.90;;;;;;5033195;28;20036;-72
2023/12/23 11:47:57;;;;;;;0.30;0.20;;;5.80;99.90;;;;;;5049497;28;20498;-71
2023/12/23 11:50:22;;;;;;;0.65;0.25;;;5.80;99.90;;;;;;5017774;28;20049;-71
2023/12/23 11:52:48;;;;;;;0.98;0.20;;;6.00;99.90;;;;;;5050059;28;20040;-71
2023/12/23 11:55:16;;;;;;;0.95;0.10;;;6.20;99.90;;;;;;5051123;28;20394;-74
2023/12/23 11:57:42;;;;;;;0.47;0.10;;;6.60;99.90;;;;;;5050047;28;20036;-71
2023/12/23 12:00:08;;;;;;;0.80;0.20;;;6.20;99.90;;;;;;5048747;28;20402;-71
2023/12/23 12:02:34;;;;;;;0.30;0.10;;;6.70;99.90;;;;;;5067214;28;20052;-72
2023/12/23 12:05:01;;;;;;;1.05;0.10;;;6.70;99.90;;;;;;5053331;28;20055;-71
2023/12/23 12:07:29;;;;;;;0.60;0.10;;;6.50;99.90;;;;;;5035507;28;20285;-72
2023/12/23 12:09:54;;;;;;;1.08;0.20;;;6.60;99.90;;;;;;5018199;28;20135;-72
2023/12/23 12:12:20;;;;;;;0.65;0.20;;;6.50;99.90;;;;;;5050010;28;20067;-72
2023/12/23 12:14:47;;;;;;;0.77;0.20;;;6.40;99.90;;;;;;5045825;28;20395;-72
2023/12/23 12:17:13;;;;;;;0.30;0.10;;;6.90;99.90;;;;;;5017713;28;20040;-72
2023/12/23 12:19:38;;;;;;;1.42;0.30;;;6.60;99.90;;;;;;5050597;28;20048;-68
2023/12/23 12:22:04;;;;;;;0.50;0.20;;;7.10;99.90;;;;;;5051982;28;20170;-69
2023/12/23 12:24:32;;;;;;;0.73;0.20;;;6.40;99.90;;;;;;5053546;28;20161;-69
2023/12/23 12:26:58;;;;;;;0.63;0.20;;;6.80;99.90;;;;;;5036965;28;20037;-69
2023/12/23 12:29:27;;;;;;;1.17;0.28;;;5.80;99.90;;;;;;5036553;28;20044;-68
2023/12/23 12:31:54;;;;;;;0.52;0.20;;;6.00;99.90;;;;;;5037111;28;20402;-69
2023/12/23 12:34:24;;;;;;;0.82;0.30;;;6.70;99.90;;;;;;5052535;28;20113;-68
2023/12/23 12:36:53;;;;;;;1.00;0.20;;;6.60;99.90;;;;;;5052462;28;20284;-68
2023/12/23 12:39:19;;;;;;;1.58;0.20;;;6.00;99.90;;;;;;5052602;28;20053;-68
2023/12/23 12:41:49;;;;;;;0.68;0.30;;;6.00;99.90;;;;;;5052461;28;20737;-69
2023/12/23 12:44:16;;;;;;;0.20;0.10;;;6.50;99.90;;;;;;5034631;28;20037;-69
2023/12/23 12:46:42;;;;;;;0.80;0.10;;;7.30;99.90;;;;;;5051493;28;20127;-69
2023/12/23 12:49:08;;;;;;;0.35;0.10;;;6.20;99.90;;;;;;5035495;28;20136;-69